createdAt,value
2018-04-15T00:01:51.274Z,81.04
2018-04-15T00:04:18.925Z,81.32
2018-04-15T00:06:46.911Z,81.21
2018-04-15T00:09:17.010Z,81.51
2018-04-15T00:11:44.563Z,81.62
2018-04-15T00:14:12.113Z,81.59
2018-04-15T00:16:39.716Z,81.60
2018-04-15T00:19:08.484Z,81.55
2018-04-15T00:21:38.145Z,81.42
2018-04-15T00:24:06.771Z,81.46
2018-04-15T00:26:37.180Z,81.43
2018-04-15T00:29:04.741Z,81.33
2018-04-15T00:31:32.255Z,81.37
2018-04-15T00:33:59.809Z,81.43
2018-04-15T00:36:27.439Z,81.42
2018-04-15T00:38:55.073Z,81.43
2018-04-15T00:41:22.863Z,81.58
2018-04-15T00:43:50.747Z,81.75
2018-04-15T00:46:18.331Z,81.57
2018-04-15T00:48:45.899Z,81.54
2018-04-15T00:51:13.461Z,81.61
2018-04-15T00:53:52.840Z,81.76
2018-04-15T00:56:22.875Z,81.73
2018-04-15T00:58:51.284Z,81.75
2018-04-15T01:01:21.887Z,81.78
2018-04-15T01:03:49.440Z,81.70
2018-04-15T01:06:17.812Z,81.64
2018-04-15T01:08:45.379Z,81.59
2018-04-15T01:11:13.008Z,81.62
2018-04-15T01:13:43.096Z,81.60
2018-04-15T01:16:10.813Z,81.70
2018-04-15T01:18:39.257Z,81.74
2018-04-15T01:21:06.805Z,81.66
2018-04-15T01:23:34.350Z,81.61
2018-04-15T01:26:01.979Z,81.60
2018-04-15T01:28:29.637Z,81.57
2018-04-15T01:30:58.215Z,81.53
2018-04-15T01:33:29.952Z,81.58
2018-04-15T01:36:02.252Z,81.64
2018-04-15T01:38:29.803Z,81.73
2018-04-15T01:40:57.443Z,81.73
2018-04-15T01:43:25.024Z,81.71
2018-04-15T01:45:52.696Z,81.74
2018-04-15T01:48:22.112Z,81.73
2018-04-15T01:50:50.694Z,81.75
2018-04-15T01:53:19.056Z,81.85
2018-04-15T01:55:46.627Z,81.80
2018-04-15T01:58:14.147Z,81.80
2018-04-15T02:00:41.701Z,81.81
2018-04-15T02:03:09.635Z,81.89
2018-04-15T02:05:42.119Z,81.93
2018-04-15T02:08:13.155Z,82.02
2018-04-15T02:10:45.161Z,82.05
2018-04-15T02:13:12.703Z,82.26
2018-04-15T02:15:40.226Z,82.23
2018-04-15T02:18:08.023Z,82.24
2018-04-15T02:20:37.460Z,82.23
2018-04-15T02:23:09.232Z,82.32
2018-04-15T02:25:37.411Z,82.38
2018-04-15T02:28:07.011Z,82.52
2018-04-15T02:30:34.607Z,82.56
2018-04-15T02:33:02.156Z,82.51
2018-04-15T02:35:29.794Z,82.56
2018-04-15T02:37:58.484Z,82.60
2018-04-15T02:40:29.133Z,82.69
2018-04-15T02:43:01.415Z,82.72
2018-04-15T02:45:30.376Z,82.89
2018-04-15T02:47:57.941Z,82.81
2018-04-15T02:50:25.501Z,82.86
2018-04-15T02:52:53.035Z,82.84
2018-04-15T02:55:23.227Z,82.94
2018-04-15T02:57:51.041Z,82.99
2018-04-15T03:00:18.771Z,83.02
2018-04-15T03:02:49.347Z,83.09
2018-04-15T03:05:16.875Z,83.04
2018-04-15T03:07:44.452Z,83.16
2018-04-15T03:10:12.024Z,83.14
2018-04-15T03:12:41.455Z,83.26
2018-04-15T03:15:10.149Z,83.32
2018-04-15T03:17:41.493Z,83.26
2018-04-15T03:20:13.159Z,83.21
2018-04-15T03:22:40.684Z,83.17
2018-04-15T03:25:08.236Z,83.16
2018-04-15T03:27:35.787Z,83.33
2018-04-15T03:30:05.325Z,83.31
2018-04-15T03:32:37.424Z,83.30
2018-04-15T03:35:06.001Z,83.44
2018-04-15T03:37:39.126Z,83.41
2018-04-15T03:40:06.695Z,83.47
2018-04-15T03:42:34.260Z,83.50
2018-04-15T03:45:01.810Z,83.45
2018-04-15T03:47:30.577Z,83.44
2018-04-15T03:49:59.245Z,83.52
2018-04-15T03:52:29.605Z,83.72
2018-04-15T03:55:02.178Z,83.74
2018-04-15T03:57:29.821Z,83.69
2018-04-15T03:59:57.369Z,83.66
2018-04-15T04:02:25.029Z,83.66
2018-04-15T04:04:55.196Z,83.81
2018-04-15T04:07:22.849Z,83.79
2018-04-15T04:09:50.813Z,83.79
2018-04-15T04:12:18.347Z,83.83
2018-04-15T04:14:45.879Z,83.83
2018-04-15T04:17:13.419Z,83.85
2018-04-15T04:19:52.829Z,84.01
2018-04-15T04:22:33.644Z,84.13
2018-04-15T04:25:26.886Z,84.04
2018-04-15T04:27:57.141Z,84.16
2018-04-15T04:30:24.727Z,84.08
2018-04-15T04:32:52.267Z,84.09
2018-04-15T04:35:19.948Z,84.08
2018-04-15T04:37:47.612Z,84.19
2018-04-15T04:40:15.270Z,84.16
2018-04-15T04:42:42.996Z,84.19
2018-04-15T04:45:14.137Z,84.33
2018-04-15T04:47:41.764Z,84.36
2018-04-15T04:50:09.299Z,84.31
2018-04-15T04:52:36.830Z,84.34
2018-04-15T04:55:04.713Z,84.42
2018-04-15T05:00:30.845Z,84.86
2018-04-15T05:02:59.114Z,85.01
2018-04-15T05:05:26.707Z,84.99
2018-04-15T05:07:54.295Z,85.16
2018-04-15T05:10:21.844Z,85.52
2018-04-15T05:12:50.265Z,85.45
2018-04-15T05:15:19.420Z,85.57
2018-04-15T05:17:50.216Z,85.68
2018-04-15T05:20:21.447Z,85.76
2018-04-15T05:22:49.023Z,85.72
2018-04-15T05:25:16.558Z,85.81
2018-04-15T05:27:44.095Z,85.74
2018-04-15T05:30:12.002Z,85.81
2018-04-15T05:35:14.280Z,85.88
2018-04-15T05:37:43.008Z,86.14
2018-04-15T05:40:10.575Z,86.01
2018-04-15T05:42:38.214Z,86.05
2018-04-15T05:45:05.753Z,86.02
2018-04-15T05:47:35.118Z,85.96
2018-04-15T05:50:02.872Z,85.91
2018-04-15T05:52:31.420Z,85.93
2018-04-15T05:55:02.497Z,85.94
2018-04-15T05:57:30.067Z,85.96
2018-04-15T05:59:57.612Z,86.02
2018-04-15T06:02:25.235Z,86.02
2018-04-15T06:04:54.763Z,86.08
2018-04-15T06:07:25.423Z,86.15
2018-04-15T06:09:54.306Z,86.10
2018-04-15T06:12:26.411Z,86.17
2018-04-15T06:14:54.122Z,86.14
2018-04-15T06:17:21.693Z,86.11
2018-04-15T06:19:49.250Z,86.26
2018-04-15T06:22:22.236Z,86.30
2018-04-15T06:24:53.343Z,86.36
2018-04-15T06:27:27.415Z,86.25
2018-04-15T06:30:00.504Z,86.24
2018-04-15T06:32:28.064Z,86.19
2018-04-15T06:34:55.684Z,86.14
2018-04-15T06:37:23.349Z,86.19
2018-04-15T06:39:51.008Z,86.08
2018-04-15T06:42:21.508Z,86.05
2018-04-15T06:44:50.622Z,86.12
2018-04-15T06:47:18.207Z,86.05
2018-04-15T06:49:45.984Z,86.08
2018-04-15T06:52:13.547Z,86.07
2018-04-15T06:54:41.165Z,86.28
2018-04-15T06:57:18.331Z,86.47
2018-04-15T07:02:19.461Z,86.66
2018-04-15T07:04:48.102Z,86.59
2018-04-15T07:07:25.744Z,86.55
2018-04-15T07:24:50.390Z,87.32
2018-04-15T07:27:18.283Z,87.54
2018-04-15T07:39:01.880Z,87.69
2018-04-15T07:41:29.548Z,87.63
2018-04-15T07:43:57.102Z,87.77
2018-04-15T07:55:46.620Z,88.08
2018-04-15T07:58:14.189Z,88.12
2018-04-15T08:00:41.821Z,88.06
2018-04-15T08:03:09.399Z,88.00
2018-04-15T08:05:37.176Z,88.14
2018-04-15T08:08:04.845Z,88.04
2018-04-15T08:10:32.479Z,88.07
2018-04-15T08:13:00.018Z,88.05
2018-04-15T08:15:27.562Z,88.07
2018-04-15T08:17:55.081Z,88.03
2018-04-15T08:20:22.601Z,88.07
2018-04-15T08:22:51.455Z,88.13
2018-04-15T08:25:19.033Z,88.21
2018-04-15T08:27:49.834Z,88.20
2018-04-15T08:30:17.360Z,88.18
2018-04-15T08:32:44.907Z,88.23
2018-04-15T08:35:12.439Z,88.37
2018-04-15T08:37:40.077Z,88.30
2018-04-15T08:40:07.619Z,88.34
2018-04-15T08:42:37.127Z,88.29
2018-04-15T08:45:06.118Z,88.26
2018-04-15T08:47:33.658Z,88.22
2018-04-15T08:50:01.202Z,88.08
2018-04-15T08:52:28.715Z,87.99
2018-04-15T08:54:56.275Z,87.99
2018-04-15T08:57:26.971Z,87.98
2018-04-15T08:59:57.511Z,87.89
2018-04-15T09:04:57.227Z,87.82
2018-04-15T09:07:24.783Z,87.75
2018-04-15T09:09:52.324Z,87.77
2018-04-15T09:12:20.726Z,87.69
2018-04-15T09:17:22.445Z,87.43
2018-04-15T09:19:54.175Z,87.13
2018-04-15T09:22:21.753Z,87.07
2018-04-15T09:24:49.293Z,86.92
2018-04-15T09:27:16.817Z,86.49
2018-04-15T09:29:44.548Z,86.00
2018-04-15T09:32:12.234Z,85.80
2018-04-15T09:34:40.982Z,85.62
2018-04-15T09:37:09.554Z,85.71
2018-04-15T09:39:37.050Z,85.73
2018-04-15T09:42:04.584Z,85.54
2018-04-15T09:44:32.255Z,85.50
2018-04-15T09:46:59.887Z,85.46
2018-04-15T09:49:27.514Z,85.44
2018-04-15T09:51:55.130Z,85.45
2018-04-15T09:54:22.679Z,85.45
2018-04-15T09:56:50.233Z,85.41
2018-04-15T09:59:17.787Z,85.41
2018-04-15T10:01:45.327Z,85.41
2018-04-15T10:04:12.877Z,85.41
2018-04-15T10:06:44.684Z,85.38
2018-04-15T10:09:12.424Z,85.41
2018-04-15T10:11:40.056Z,85.42
2018-04-15T10:14:07.627Z,85.36
2018-04-15T10:16:35.168Z,85.25
2018-04-15T10:19:02.707Z,84.94
2018-04-15T10:21:30.284Z,84.88
2018-04-15T10:23:57.959Z,84.89
2018-04-15T10:26:25.519Z,84.92
2018-04-15T10:28:53.078Z,84.93
2018-04-15T10:31:20.610Z,84.96
2018-04-15T10:33:49.463Z,84.83
2018-04-15T10:36:16.970Z,84.84
2018-04-15T10:38:44.524Z,84.85
2018-04-15T10:44:11.475Z,84.61
2018-04-15T10:46:39.023Z,83.67
2018-04-15T10:49:06.569Z,82.40
2018-04-15T10:51:34.166Z,81.89
2018-04-15T10:54:01.703Z,81.07
2018-04-15T10:56:29.464Z,79.51
2018-04-15T10:58:57.054Z,79.84
2018-04-15T11:01:24.619Z,78.66
2018-04-15T11:03:52.189Z,78.38
2018-04-15T11:06:19.722Z,78.10
2018-04-15T11:08:47.252Z,77.65
2018-04-15T11:11:15.501Z,76.96
2018-04-15T11:13:43.039Z,77.15
2018-04-15T11:16:10.659Z,76.86
2018-04-15T11:18:38.279Z,76.93
2018-04-15T11:21:05.869Z,76.41
2018-04-15T11:23:34.199Z,75.06
2018-04-15T11:26:01.739Z,75.32
2018-04-15T11:28:29.251Z,75.50
2018-04-15T11:30:56.775Z,75.10
2018-04-15T11:33:24.324Z,75.16
2018-04-15T11:35:58.088Z,75.21
2018-04-15T11:38:30.041Z,74.45
2018-04-15T11:40:57.662Z,74.01
2018-04-15T11:43:25.161Z,73.84
2018-04-15T11:45:52.641Z,73.34
2018-04-15T11:48:20.162Z,72.44
2018-04-15T11:50:49.330Z,71.61
2018-04-15T11:53:19.431Z,71.54
2018-04-15T11:55:46.978Z,70.46
2018-04-15T11:58:16.761Z,69.39
2018-04-15T12:00:44.263Z,68.70
2018-04-15T12:03:11.769Z,68.55
2018-04-15T12:05:39.266Z,68.25
2018-04-15T12:08:09.437Z,68.33
2018-04-15T12:13:19.597Z,67.86
2018-04-15T12:15:48.279Z,67.72
2018-04-15T12:18:15.789Z,69.00
2018-04-15T12:20:43.250Z,69.95
2018-04-15T12:23:10.758Z,69.56
2018-04-15T12:25:39.528Z,70.54
2018-04-15T12:33:33.838Z,71.30
2018-04-15T12:36:01.302Z,70.39
2018-04-15T12:38:28.795Z,70.09
2018-04-15T12:40:56.294Z,70.28
2018-04-15T12:46:07.270Z,69.23
2018-04-15T12:51:16.126Z,68.16
2018-04-15T12:53:43.631Z,68.16
2018-04-15T12:56:11.165Z,68.32
2018-04-15T12:58:40.507Z,67.43
2018-04-15T13:09:14.274Z,67.29
2018-04-15T13:11:41.836Z,67.76
2018-04-15T13:14:09.311Z,67.98
2018-04-15T13:16:37.870Z,67.38
2018-04-15T13:27:26.578Z,67.27
2018-04-15T13:29:54.130Z,67.44
2018-04-15T13:32:21.684Z,67.86
2018-04-15T13:37:34.634Z,68.94
2018-04-15T13:42:37.239Z,70.93
2018-04-15T13:45:04.792Z,71.94
2018-04-15T13:47:32.360Z,72.48
2018-04-15T13:49:59.939Z,72.66
2018-04-15T13:52:29.736Z,71.84
2018-04-15T13:55:01.551Z,70.86
2018-04-15T14:00:08.383Z,68.96
2018-04-15T14:02:35.926Z,68.35
2018-04-15T14:05:03.451Z,66.08
2018-04-15T14:07:31.104Z,65.48
2018-04-15T14:12:34.770Z,64.82
2018-04-15T14:17:37.769Z,64.71
2018-04-15T14:20:05.352Z,64.92
2018-04-15T14:22:32.922Z,65.02
2018-04-15T14:25:01.741Z,64.64
2018-04-15T14:27:34.758Z,64.07
2018-04-15T14:30:06.288Z,63.00
2018-04-15T14:32:38.376Z,63.04
2018-04-15T14:35:05.987Z,62.49
2018-04-15T14:37:33.543Z,62.80
2018-04-15T14:40:01.088Z,62.88
2018-04-15T14:42:31.182Z,63.15
2018-04-15T14:52:52.740Z,63.06
2018-04-15T14:55:20.285Z,63.45
2018-04-15T14:57:47.920Z,63.37
2018-04-15T15:00:17.503Z,63.27
2018-04-15T15:08:08.250Z,64.43
2018-04-15T15:10:35.807Z,64.99
2018-04-15T15:13:03.321Z,66.71
2018-04-15T15:15:30.992Z,68.21
2018-04-15T15:20:51.339Z,70.54
2018-04-15T15:26:06.530Z,71.87
2018-04-15T15:28:34.012Z,72.22
2018-04-15T15:31:01.508Z,72.06
2018-04-15T15:33:29.002Z,72.28
2018-04-15T15:35:58.535Z,71.91
2018-04-15T15:38:27.004Z,71.68
2018-04-15T15:40:55.535Z,71.42
2018-04-15T15:43:23.711Z,71.47
2018-04-15T15:45:51.220Z,71.21
2018-04-15T15:48:18.704Z,71.34
2018-04-15T15:50:46.246Z,70.90
2018-04-15T15:53:17.978Z,71.05
2018-04-15T15:55:49.844Z,70.38
2018-04-15T15:58:18.352Z,70.49
2018-04-15T16:00:45.851Z,70.62
2018-04-15T16:03:13.321Z,70.93
2018-04-15T16:05:40.815Z,71.22
2018-04-15T16:08:08.421Z,71.87
2018-04-15T16:13:37.168Z,73.86
2018-04-15T16:18:50.620Z,77.87
2018-04-15T16:21:19.508Z,78.51
2018-04-15T16:23:47.072Z,79.12
2018-04-15T16:29:10.641Z,79.87
2018-04-15T16:31:39.641Z,80.35
2018-04-15T16:34:09.701Z,80.71
2018-04-15T16:36:37.323Z,80.30
2018-04-15T16:39:05.469Z,80.39
2018-04-15T16:41:32.991Z,80.32
2018-04-15T16:44:00.570Z,80.22
2018-04-15T16:46:28.167Z,79.98
2018-04-15T16:48:58.772Z,80.37
2018-04-15T16:51:45.227Z,81.30
2018-04-15T16:54:12.716Z,80.68
2018-04-15T16:56:40.255Z,80.06
2018-04-15T16:59:07.772Z,79.27
2018-04-15T17:10:13.110Z,77.17
2018-04-15T17:12:40.614Z,77.35
2018-04-15T17:15:08.137Z,77.09
2018-04-15T17:17:35.686Z,77.26
2018-04-15T17:28:29.067Z,77.66
2018-04-15T17:30:56.566Z,78.07
2018-04-15T17:33:24.063Z,78.18
2018-04-15T17:35:54.475Z,78.36
2018-04-15T17:38:26.341Z,78.80
2018-04-15T17:40:55.719Z,78.89
2018-04-15T17:43:23.640Z,79.65
2018-04-15T17:45:51.134Z,79.82
2018-04-15T17:48:18.647Z,79.64
2018-04-15T17:50:46.130Z,79.86
2018-04-15T17:53:18.404Z,79.96
2018-04-15T17:55:47.135Z,80.00
2018-04-15T18:00:49.768Z,80.03
2018-04-15T18:03:17.265Z,80.21
2018-04-15T18:05:44.758Z,80.11
2018-04-15T18:08:12.254Z,80.02
2018-04-15T18:19:12.942Z,79.99
2018-04-15T18:21:40.440Z,80.26
2018-04-15T18:24:07.998Z,80.52
2018-04-15T18:26:35.474Z,80.58
2018-04-15T18:37:25.902Z,81.23
2018-04-15T18:39:53.391Z,81.30
2018-04-15T18:42:20.882Z,81.22
2018-04-15T18:44:48.879Z,81.23
2018-04-15T18:56:13.503Z,81.11
2018-04-15T18:58:41.002Z,81.18
2018-04-15T19:01:08.487Z,81.36
2018-04-15T19:12:17.270Z,81.73
2018-04-15T19:14:44.757Z,81.73
2018-04-15T19:17:12.270Z,81.86
2018-04-15T19:28:40.822Z,82.11
2018-04-15T19:31:08.325Z,81.96
2018-04-15T19:33:35.831Z,81.81
2018-04-15T19:36:03.370Z,81.79
2018-04-15T19:47:07.814Z,81.76
2018-04-15T19:49:35.326Z,81.99
2018-04-15T19:52:02.836Z,81.97
2018-04-15T19:54:30.342Z,81.93
2018-04-15T20:05:35.421Z,81.91
2018-04-15T20:08:02.945Z,81.93
2018-04-15T20:10:30.426Z,81.93
2018-04-15T20:21:35.851Z,81.77
2018-04-15T20:24:03.347Z,81.77
2018-04-15T20:26:30.842Z,81.86
2018-04-15T20:28:58.335Z,81.84
2018-04-15T20:34:41.348Z,81.70
2018-04-15T20:40:03.814Z,81.73
2018-04-15T20:42:31.324Z,81.78
2018-04-15T20:44:58.830Z,81.76
2018-04-15T20:56:04.214Z,81.62
2018-04-15T20:58:31.699Z,81.51
2018-04-15T21:00:59.211Z,81.45
2018-04-15T21:03:26.719Z,81.35
2018-04-15T21:14:52.202Z,81.49
2018-04-15T21:17:19.726Z,81.58
2018-04-15T21:19:47.258Z,81.55
2018-04-15T21:30:52.814Z,81.22
2018-04-15T21:33:20.290Z,81.18
2018-04-15T21:35:47.795Z,81.16
2018-04-15T21:50:30.143Z,81.14
2018-04-15T21:52:57.683Z,81.09
2018-04-15T22:04:13.360Z,81.28
2018-04-15T22:06:40.850Z,81.30
2018-04-15T22:09:08.350Z,81.16
2018-04-15T22:23:17.538Z,81.03
2018-04-15T22:25:45.017Z,81.00
2018-04-15T22:28:12.517Z,81.01
2018-04-15T22:39:18.566Z,80.61
2018-04-15T22:41:46.178Z,80.57
2018-04-15T22:44:13.646Z,80.55
2018-04-15T22:46:41.142Z,80.53
